createdAt,value
2022-12-27T00:02:03.661Z,0.40
2022-12-27T00:07:24.420Z,0.30
2022-12-27T00:12:45.040Z,0.68
2022-12-27T00:18:05.796Z,0.30
2022-12-27T00:23:27.467Z,0.57
2022-12-27T00:28:48.722Z,0.35
2022-12-27T00:34:10.580Z,0.50
2022-12-27T00:39:31.256Z,0.43
2022-12-27T00:44:51.833Z,0.30
2022-12-27T00:50:12.528Z,0.40
2022-12-27T00:55:33.200Z,0.50
2022-12-27T01:00:53.844Z,0.30
2022-12-27T01:06:18.460Z,0.40
2022-12-27T01:11:41.738Z,0.40
2022-12-27T01:17:02.738Z,0.32
2022-12-27T01:22:23.455Z,0.45
2022-12-27T01:27:44.270Z,0.50
2022-12-27T01:33:05.063Z,0.43
2022-12-27T01:38:25.772Z,0.40
2022-12-27T01:43:46.505Z,0.28
2022-12-27T01:49:10.173Z,0.40
2022-12-27T01:54:31.075Z,0.30
2022-12-27T01:59:51.819Z,0.40
2022-12-27T02:05:17.416Z,0.10
2022-12-27T02:10:39.617Z,0.30
2022-12-27T02:16:00.409Z,0.30
2022-12-27T02:21:58.063Z,0.20
2022-12-27T02:27:28.097Z,0.20
2022-12-27T02:43:55.604Z,0.40
2022-12-27T02:49:47.481Z,0.40
2022-12-27T02:55:29.952Z,0.45
2022-12-27T03:01:46.782Z,0.40
2022-12-27T03:07:19.869Z,0.52
2022-12-27T03:13:19.727Z,0.65
2022-12-27T03:18:46.559Z,0.82
2022-12-27T03:24:26.780Z,0.70
2022-12-27T03:30:10.193Z,0.70
2022-12-27T03:35:34.684Z,0.98
2022-12-27T03:41:23.048Z,1.10
2022-12-27T03:46:44.804Z,0.75
2022-12-27T03:52:19.373Z,0.90
2022-12-27T03:57:40.852Z,1.17
2022-12-27T04:03:01.753Z,1.70
2022-12-27T04:08:42.572Z,1.23
2022-12-27T04:14:21.845Z,1.50
2022-12-27T04:20:01.155Z,1.35
2022-12-27T04:25:40.411Z,1.40
2022-12-27T04:31:19.743Z,1.73
2022-12-27T04:36:40.555Z,1.20
2022-12-27T04:42:19.810Z,1.00
2022-12-27T04:47:58.938Z,1.80
2022-12-27T04:53:40.148Z,1.08
2022-12-27T04:59:19.196Z,1.48
2022-12-27T05:04:40.185Z,1.30
2022-12-27T05:10:23.499Z,0.98
2022-12-27T05:15:44.454Z,1.40
2022-12-27T05:21:06.581Z,1.42
2022-12-27T05:26:30.366Z,1.40
2022-12-27T05:31:51.055Z,1.70
2022-12-27T05:37:11.809Z,1.80
2022-12-27T05:42:32.538Z,1.10
2022-12-27T05:47:53.448Z,1.30
2022-12-27T05:53:14.903Z,1.27
2022-12-27T05:58:35.605Z,1.05
2022-12-27T06:03:56.557Z,1.50
2022-12-27T06:09:17.439Z,1.38
2022-12-27T06:14:38.129Z,1.15
2022-12-27T06:19:59.388Z,0.93
2022-12-27T06:25:20.123Z,1.08
2022-12-27T06:30:40.805Z,1.00
2022-12-27T06:36:10.147Z,1.00
2022-12-27T06:41:30.973Z,1.10
2022-12-27T06:46:51.817Z,1.10
2022-12-27T06:52:12.571Z,1.00
2022-12-27T06:57:33.483Z,0.90
2022-12-27T07:02:54.210Z,0.82
2022-12-27T07:08:15.496Z,0.80
2022-12-27T07:13:42.631Z,0.95
2022-12-27T07:19:03.532Z,0.77
2022-12-27T07:24:24.386Z,1.10
2022-12-27T07:29:45.940Z,0.50
2022-12-27T07:35:07.048Z,0.70
2022-12-27T07:40:28.054Z,0.65
2022-12-27T07:45:49.455Z,0.65
2022-12-27T07:51:11.174Z,0.80
2022-12-27T07:56:31.887Z,0.60
2022-12-27T08:02:04.848Z,0.80
2022-12-27T08:07:26.473Z,0.88
2022-12-27T08:12:47.355Z,0.63
2022-12-27T08:18:08.481Z,0.60
2022-12-27T08:23:29.427Z,0.70
2022-12-27T08:28:50.063Z,0.50
2022-12-27T08:34:10.930Z,0.63
2022-12-27T08:39:31.634Z,0.73
2022-12-27T08:44:52.544Z,0.70
2022-12-27T08:50:13.244Z,0.52
2022-12-27T08:55:34.463Z,0.70
2022-12-27T09:00:55.169Z,0.75
2022-12-27T09:06:22.217Z,0.47
2022-12-27T09:11:43.024Z,0.93
2022-12-27T09:17:03.696Z,1.42
2022-12-27T09:22:25.793Z,0.70
2022-12-27T09:27:46.831Z,0.80
2022-12-27T09:33:07.597Z,0.80
2022-12-27T09:38:28.576Z,0.85
2022-12-27T09:44:02.773Z,0.60
2022-12-27T09:49:45.647Z,0.65
2022-12-27T09:55:06.497Z,0.60
2022-12-27T10:00:34.133Z,0.60
2022-12-27T10:06:24.085Z,0.50
2022-12-27T10:12:07.472Z,0.70
2022-12-27T10:17:46.888Z,0.90
2022-12-27T10:23:17.348Z,0.60
2022-12-27T10:28:46.271Z,0.70
2022-12-27T10:34:10.846Z,0.70
2022-12-27T10:39:36.052Z,0.73
2022-12-27T10:45:29.151Z,0.70
2022-12-27T10:51:00.225Z,0.77
2022-12-27T10:56:21.015Z,0.50
2022-12-27T11:01:41.939Z,0.57
2022-12-27T11:07:03.088Z,0.70
2022-12-27T11:12:29.257Z,0.88
2022-12-27T11:18:04.680Z,0.52
2022-12-27T11:23:40.513Z,0.80
2022-12-27T11:29:02.994Z,0.55
2022-12-27T11:34:31.099Z,0.70
2022-12-27T11:39:55.146Z,0.50
2022-12-27T11:45:19.529Z,0.68
2022-12-27T11:50:54.088Z,0.95
2022-12-27T11:56:22.470Z,0.80
2022-12-27T12:02:08.091Z,0.63
2022-12-27T12:07:46.834Z,1.48
2022-12-27T12:13:23.947Z,0.95
2022-12-27T12:19:08.795Z,0.95
2022-12-27T12:25:07.142Z,0.90
2022-12-27T12:30:59.100Z,0.90
2022-12-27T12:36:54.480Z,1.20
2022-12-27T12:42:37.505Z,1.10
2022-12-27T12:48:36.697Z,1.35
2022-12-27T12:54:38.943Z,1.00
2022-12-27T13:00:09.132Z,1.00
2022-12-27T13:05:36.077Z,0.75
2022-12-27T13:11:13.504Z,0.90
2022-12-27T13:17:16.153Z,0.60
2022-12-27T13:22:57.158Z,0.70
2022-12-27T13:28:36.597Z,1.10
2022-12-27T13:34:24.842Z,1.13
2022-12-27T13:40:18.249Z,0.90
2022-12-27T13:46:05.092Z,0.93
2022-12-27T13:51:50.923Z,1.05
2022-12-27T13:57:30.748Z,0.80
2022-12-27T14:03:03.553Z,1.08
2022-12-27T14:08:27.484Z,0.95
2022-12-27T14:13:48.597Z,1.15
2022-12-27T14:19:35.223Z,1.02
2022-12-27T14:25:33.821Z,0.85
2022-12-27T14:31:41.630Z,1.48
2022-12-27T14:37:30.160Z,1.13
2022-12-27T14:43:38.252Z,1.38
2022-12-27T14:49:09.277Z,0.93
2022-12-27T14:54:39.401Z,1.27
2022-12-27T15:00:13.795Z,1.02
2022-12-27T15:05:49.506Z,1.38
2022-12-27T15:11:46.805Z,0.80
2022-12-27T15:17:10.992Z,1.17
2022-12-27T15:22:48.183Z,0.93
2022-12-27T15:28:08.789Z,0.60
2022-12-27T15:34:00.511Z,1.35
2022-12-27T15:39:33.478Z,1.13
2022-12-27T15:45:32.739Z,1.17
2022-12-27T15:51:05.950Z,1.05
2022-12-27T15:56:45.734Z,1.33
2022-12-27T16:02:31.026Z,1.70
2022-12-27T16:08:12.947Z,1.55
2022-12-27T16:13:48.285Z,1.38
2022-12-27T16:19:57.040Z,1.92
2022-12-27T16:25:37.857Z,1.30
2022-12-27T16:31:00.587Z,1.65
2022-12-27T16:36:26.414Z,1.60
2022-12-27T16:41:50.137Z,1.67
2022-12-27T16:47:31.067Z,1.92
2022-12-27T16:53:13.340Z,1.52
2022-12-27T16:58:37.564Z,1.35
2022-12-27T17:03:59.276Z,2.08
2022-12-27T17:09:20.194Z,2.20
2022-12-27T17:14:44.277Z,1.83
2022-12-27T17:20:13.103Z,1.55
2022-12-27T17:25:49.764Z,1.90
2022-12-27T17:31:23.942Z,1.70
2022-12-27T17:37:15.598Z,1.70
2022-12-27T17:43:01.530Z,1.10
2022-12-27T17:48:30.022Z,1.40
2022-12-27T17:54:11.348Z,1.65
2022-12-27T17:59:34.962Z,1.38
2022-12-27T18:04:57.526Z,1.40
2022-12-27T18:10:25.897Z,1.60
2022-12-27T18:15:50.107Z,1.27
2022-12-27T18:21:22.469Z,1.60
2022-12-27T18:26:43.351Z,1.75
2022-12-27T18:32:08.798Z,1.90
2022-12-27T18:37:30.973Z,2.13
2022-12-27T18:42:53.500Z,1.60
2022-12-27T18:48:18.389Z,1.95
2022-12-27T18:53:40.682Z,2.22
2022-12-27T18:59:19.123Z,2.15
2022-12-27T19:04:39.761Z,2.40
2022-12-27T19:10:01.930Z,2.35
2022-12-27T19:15:29.391Z,2.10
2022-12-27T19:21:01.967Z,3.55
2022-12-27T19:26:32.181Z,2.30
2022-12-27T19:32:16.453Z,2.50
2022-12-27T19:37:40.039Z,3.40
2022-12-27T19:43:01.033Z,2.85
2022-12-27T19:48:22.643Z,2.90
2022-12-27T19:53:51.054Z,2.13
2022-12-27T19:59:19.517Z,2.40
2022-12-27T20:04:40.655Z,3.58
2022-12-27T20:10:01.962Z,3.00
2022-12-27T20:15:23.865Z,3.17
2022-12-27T20:20:45.759Z,3.55
2022-12-27T20:26:07.248Z,2.97
2022-12-27T20:31:28.257Z,3.05
2022-12-27T20:36:49.106Z,3.72
2022-12-27T20:42:11.884Z,3.25
2022-12-27T20:47:32.644Z,3.50
2022-12-27T20:52:53.825Z,3.22
2022-12-27T20:58:14.726Z,2.30
2022-12-27T21:03:37.214Z,2.55
2022-12-27T21:08:58.595Z,2.80
2022-12-27T21:14:19.452Z,2.30
2022-12-27T21:19:40.686Z,3.30
2022-12-27T21:25:01.371Z,2.88
2022-12-27T21:30:23.028Z,2.60
2022-12-27T21:35:43.913Z,3.05
2022-12-27T21:41:31.462Z,3.20
2022-12-27T21:46:52.065Z,3.60
2022-12-27T21:52:12.834Z,3.80
2022-12-27T21:57:33.544Z,3.80
2022-12-27T22:02:54.403Z,3.75
2022-12-27T22:08:16.573Z,4.22
2022-12-27T22:13:37.722Z,4.22
2022-12-27T22:19:00.362Z,4.20
2022-12-27T22:24:21.326Z,4.35
2022-12-27T22:29:43.690Z,3.30
2022-12-27T22:35:04.630Z,3.95
2022-12-27T22:40:31.100Z,4.50
2022-12-27T22:46:12.002Z,4.95
2022-12-27T22:51:37.509Z,4.25
2022-12-27T22:56:58.405Z,4.40
2022-12-27T23:02:19.882Z,4.00
2022-12-27T23:08:04.587Z,3.70
2022-12-27T23:13:24.037Z,2.97
2022-12-27T23:18:45.139Z,3.20
2022-12-27T23:24:06.717Z,2.50
2022-12-27T23:29:27.630Z,3.03
2022-12-27T23:34:48.343Z,2.60
2022-12-27T23:40:09.795Z,3.03
2022-12-27T23:45:30.665Z,2.25
2022-12-27T23:50:51.300Z,2.90
2022-12-27T23:56:16.368Z,3.55
